الصفحة الرئيسية
METAR-TAF:

METAR-TAF

مطار :

Yap, مايكرونيزيا

دائرة عرض: 09-29N, خط طول: 138-05E, ارتفاع: 28 متر

مراقبة الطقس الحالي

تاريخ ووقت الإصدار 39 دقيقة قبل الساعة 18:50UTC
ريح 5 عقدةمن اتجاهات متغيرة
درجة الحرارة 28°درجة مئوية
الرطوبة 84%
ضغط 1009 hPa
الرؤية: 19.3 كم
غيوم قليلة على ارتفاع 1600 قدم
غيوم متفرقة على ارتفاع 13000 قدم
غيوم مفككة على ارتفاع 30000 قدم

METAR: PTYA 161850Z VRB05KT 12SM FEW016 SCT130 BKN300 28/25 A2979 RMK SLP088 T02780245

زمن: 05:29 (19:29 UTC)

توقعات

تاريخ ووقت الإصدار 2ساعات و 9 دقيقة قبل الساعة 17:20UTC
التوقعات صالحة من16 الساعة 18 UTC إلى 17 الساعة 18 UTC
ريح 7 عقدة من الشمال الغربي
الرؤية: 10 كم
غيوم متفرقة على ارتفاع 1600 قدم
غيوم متفرقة على ارتفاع 13000 قدم
ملبد بالغيوم على ارتفاع 30000 قدم
زخات في الجوار

TAF: PTYA 161720Z 1618/1718 31007KT P6SM VCSH SCT016 SCT130 OVC300

أرصاد الطقس والتوقعات من أكثر من 4000 مطار (تقارير الطقس للمطار METAR والتنبؤ بالطقس بالمطارTAF).

المحطات المتاحة هي النقط الصفراء والحمراء على الخريطة.

حرك المؤشر فوق النقطة لمعرفة اسم المحطة.

ثم انقر لمعرفة أرصاد وتوقعات الطقس.

لتغيير الخارطة: اضغط على الأزرار الخضراء مع رمز الصليب الأسود للتكبير. على الزر الأخضر مع شرطة للتصغير، أو على الأسهم الخضراء للخرائط المجاورة.


METAR-TAF: